Time;durP1;ratioP1;P1;durP2;ratioP2;P2;SDS_P1;SDS_P2;PMS_P1;PMS_P2;Temp;Humidity;BMP_temperature;BMP_pressure;BME280_temperature;BME280_humidity;BME280_pressure;Samples;Min_cycle;Max_cycle;Signal;HPM_P1;HPM_P2
2022/06/26 00:01:57;;;;;;;4.82;2.47;;;;;;;;;;5018950;28;20037;-68
2022/06/26 00:04:22;;;;;;;5.05;2.40;;;;;;;;;;5020334;28;20163;-65
2022/06/26 00:06:48;;;;;;;3.85;2.25;;;;;;;;;;5020742;28;20037;-63
2022/06/26 00:09:13;;;;;;;5.03;2.20;;;;;;;;;;5019948;28;20076;-64
2022/06/26 00:11:38;;;;;;;6.07;2.58;;;;;;;;;;5020735;28;20026;-69
2022/06/26 00:14:04;;;;;;;4.15;2.33;;;;;;;;;;5020506;28;20032;-66
2022/06/26 00:16:29;;;;;;;5.30;2.55;;;;;;;;;;5018406;28;20025;-67
2022/06/26 00:18:56;;;;;;;7.85;2.75;;;;;;;;;;5019730;28;20429;-65
2022/06/26 00:21:21;;;;;;;4.38;2.67;;;;;;;;;;5021214;28;20032;-68
2022/06/26 00:23:47;;;;;;;6.28;2.72;;;;;;;;;;5020779;28;20033;-63
2022/06/26 00:26:12;;;;;;;4.35;2.90;;;;;;;;;;5018892;28;20053;-65
2022/06/26 00:28:37;;;;;;;6.22;2.90;;;;;;;;;;5021365;28;20440;-66
2022/06/26 00:31:03;;;;;;;3.00;2.58;;;;;;;;;;5019707;28;20064;-65
2022/06/26 00:33:28;;;;;;;4.50;2.78;;;;;;;;;;5020700;28;20036;-65
2022/06/26 00:35:54;;;;;;;5.35;2.80;;;;;;;;;;5017971;28;20017;-67
2022/06/26 00:38:19;;;;;;;4.82;2.70;;;;;;;;;;5020603;28;20363;-64
2022/06/26 00:40:45;;;;;;;3.58;2.78;;;;;;;;;;5019499;28;20045;-70
2022/06/26 00:43:10;;;;;;;6.45;3.13;;;;;;;;;;5020149;28;20039;-67
2022/06/26 00:45:35;;;;;;;4.20;2.70;;;;;;;;;;5019758;28;20029;-65
2022/06/26 00:48:01;;;;;;;4.63;2.72;;;;;;;;;;5017734;28;20048;-65
2022/06/26 00:50:26;;;;;;;7.65;3.20;;;;;;;;;;5018184;28;20029;-66
2022/06/26 00:52:53;;;;;;;12.18;3.28;;;;;;;;;;5018314;28;20028;-65
2022/06/26 00:55:19;;;;;;;4.68;3.00;;;;;;;;;;5018173;28;20448;-65
2022/06/26 00:57:45;;;;;;;5.18;2.70;;;;;;;;;;5020239;28;20021;-67
2022/06/26 01:00:10;;;;;;;8.02;3.15;;;;;;;;;;5020132;28;20032;-67
2022/06/26 01:02:36;;;;;;;3.22;2.40;;;;;;;;;;5009613;28;20033;-64
2022/06/26 01:05:02;;;;;;;3.92;2.70;;;;;;;;;;5020531;28;20035;-64
2022/06/26 01:07:27;;;;;;;6.78;2.47;;;;;;;;;;5018516;28;20057;-65
2022/06/26 01:09:53;;;;;;;4.07;2.22;;;;;;;;;;5019305;28;20113;-66
2022/06/26 01:12:18;;;;;;;2.35;2.15;;;;;;;;;;5018598;28;20437;-68
2022/06/26 01:14:44;;;;;;;4.18;2.70;;;;;;;;;;5020443;28;20121;-65
2022/06/26 01:17:10;;;;;;;5.18;2.47;;;;;;;;;;5018930;28;20040;-66
2022/06/26 01:19:35;;;;;;;4.57;2.47;;;;;;;;;;5018874;28;20029;-66
2022/06/26 01:22:01;;;;;;;5.03;2.20;;;;;;;;;;5014228;28;20033;-69
2022/06/26 01:24:26;;;;;;;6.68;2.10;;;;;;;;;;5015331;28;20056;-65
2022/06/26 01:26:51;;;;;;;4.60;2.10;;;;;;;;;;5018561;28;20021;-65
2022/06/26 01:29:17;;;;;;;4.13;2.30;;;;;;;;;;5019050;28;20452;-64
2022/06/26 01:31:42;;;;;;;4.47;2.20;;;;;;;;;;5018669;28;20030;-67
2022/06/26 01:34:09;;;;;;;3.58;1.90;;;;;;;;;;5018578;28;20134;-66
2022/06/26 01:36:37;;;;;;;4.50;2.10;;;;;;;;;;5017153;28;20021;-65
2022/06/26 01:39:03;;;;;;;3.50;2.13;;;;;;;;;;5019435;28;20022;-64
2022/06/26 01:41:28;;;;;;;11.30;2.45;;;;;;;;;;5012396;28;20352;-65
2022/06/26 01:43:54;;;;;;;2.95;2.13;;;;;;;;;;5009828;28;20037;-68
2022/06/26 01:46:20;;;;;;;5.78;2.28;;;;;;;;;;5011103;28;20041;-67
2022/06/26 01:48:46;;;;;;;5.18;2.47;;;;;;;;;;5005668;28;20109;-67
2022/06/26 01:51:11;;;;;;;6.70;2.53;;;;;;;;;;5028238;28;20065;-65
2022/06/26 01:53:37;;;;;;;8.75;2.20;;;;;;;;;;5002907;28;20291;-64
2022/06/26 01:56:02;;;;;;;4.53;1.90;;;;;;;;;;5010597;28;20433;-67
2022/06/26 01:58:28;;;;;;;2.97;1.90;;;;;;;;;;5012396;28;20026;-69
2022/06/26 02:00:53;;;;;;;1.60;1.50;;;;;;;;;;5008137;28;20021;-65
2022/06/26 02:03:19;;;;;;;3.60;2.20;;;;;;;;;;5011140;28;20044;-68
2022/06/26 02:05:45;;;;;;;2.78;1.58;;;;;;;;;;5013352;28;20029;-65
2022/06/26 02:08:10;;;;;;;3.53;1.60;;;;;;;;;;5009327;28;21039;-66
2022/06/26 02:13:40;;;;;;;3.88;1.70;;;;;;;;;;5008119;28;20079;-65
2022/06/26 02:16:10;;;;;;;2.83;1.50;;;;;;;;;;5008440;28;20457;-65
2022/06/26 02:18:36;;;;;;;3.47;2.30;;;;;;;;;;5009084;28;20448;-67
2022/06/26 02:21:03;;;;;;;3.25;2.75;;;;;;;;;;5014532;28;20064;-65
2022/06/26 02:23:29;;;;;;;4.28;2.22;;;;;;;;;;5014825;28;20086;-65
2022/06/26 02:25:54;;;;;;;7.22;2.58;;;;;;;;;;5016549;28;20033;-67
2022/06/26 02:28:19;;;;;;;5.80;2.50;;;;;;;;;;5016472;28;20021;-66
2022/06/26 02:30:46;;;;;;;4.75;2.80;;;;;;;;;;5017265;28;20044;-70
2022/06/26 02:33:11;;;;;;;3.78;2.03;;;;;;;;;;5014573;28;20448;-66
2022/06/26 02:35:37;;;;;;;5.18;1.67;;;;;;;;;;5013998;28;20037;-65
2022/06/26 02:38:02;;;;;;;6.95;2.20;;;;;;;;;;5012461;28;20060;-66
2022/06/26 02:40:29;;;;;;;4.38;2.13;;;;;;;;;;5013549;28;20042;-66
2022/06/26 02:42:54;;;;;;;6.25;2.00;;;;;;;;;;5012616;28;20026;-65
2022/06/26 02:45:20;;;;;;;3.42;1.70;;;;;;;;;;5013156;28;20395;-71
2022/06/26 02:47:46;;;;;;;6.22;2.10;;;;;;;;;;5014307;28;20081;-65
2022/06/26 02:50:12;;;;;;;3.80;1.70;;;;;;;;;;5014253;28;20504;-65
2022/06/26 02:52:38;;;;;;;3.42;1.98;;;;;;;;;;5012967;28;20081;-65
2022/06/26 02:55:04;;;;;;;4.22;2.38;;;;;;;;;;5012064;28;20036;-65
2022/06/26 02:57:29;;;;;;;3.85;2.38;;;;;;;;;;5007309;28;20044;-66
2022/06/26 02:59:55;;;;;;;3.28;2.38;;;;;;;;;;5012367;28;20030;-70
2022/06/26 03:02:20;;;;;;;3.83;2.13;;;;;;;;;;5012872;28;20086;-69
2022/06/26 03:04:46;;;;;;;3.70;2.58;;;;;;;;;;5012970;28;20037;-67
2022/06/26 03:07:11;;;;;;;4.55;2.40;;;;;;;;;;5012197;28;20085;-64
2022/06/26 03:09:36;;;;;;;5.45;2.50;;;;;;;;;;5012077;28;20091;-65
2022/06/26 03:12:02;;;;;;;8.35;2.28;;;;;;;;;;5012291;28;20727;-64
2022/06/26 03:14:27;;;;;;;7.32;2.22;;;;;;;;;;5012103;28;20057;-66
2022/06/26 03:16:53;;;;;;;4.95;2.53;;;;;;;;;;5013027;28;20549;-65
2022/06/26 03:19:18;;;;;;;4.40;1.92;;;;;;;;;;5032218;28;20408;-67
2022/06/26 03:21:43;;;;;;;4.38;2.00;;;;;;;;;;5012309;28;20072;-64
2022/06/26 03:24:09;;;;;;;3.00;1.90;;;;;;;;;;5012255;28;20021;-69
2022/06/26 03:26:35;;;;;;;2.85;1.90;;;;;;;;;;5014520;28;20029;-67
2022/06/26 03:29:01;;;;;;;3.13;2.20;;;;;;;;;;5015053;28;20112;-66
2022/06/26 03:31:27;;;;;;;5.57;2.08;;;;;;;;;;5014536;28;20112;-64
2022/06/26 03:33:52;;;;;;;10.30;6.88;;;;;;;;;;5010791;28;20026;-69
2022/06/26 03:36:18;;;;;;;26.92;22.05;;;;;;;;;;5013393;28;20463;-68
2022/06/26 03:38:44;;;;;;;20.20;16.58;;;;;;;;;;5011957;28;20843;-64
2022/06/26 03:41:10;;;;;;;43.22;32.20;;;;;;;;;;5016993;28;20083;-67
2022/06/26 03:43:35;;;;;;;64.45;42.40;;;;;;;;;;5021128;28;20049;-64
2022/06/26 03:46:00;;;;;;;50.88;34.58;;;;;;;;;;5021191;28;20053;-65
2022/06/26 03:48:26;;;;;;;23.52;16.33;;;;;;;;;;5020554;28;20034;-64
2022/06/26 03:50:51;;;;;;;14.95;8.13;;;;;;;;;;5022015;28;20029;-65
2022/06/26 03:53:17;;;;;;;9.30;6.70;;;;;;;;;;5021726;28;20392;-64
2022/06/26 03:55:42;;;;;;;8.10;5.22;;;;;;;;;;5019857;28;20062;-65
2022/06/26 03:58:08;;;;;;;7.05;3.30;;;;;;;;;;5020026;28;20454;-68
2022/06/26 04:00:33;;;;;;;5.95;2.70;;;;;;;;;;5021294;28;20029;-64
2022/06/26 04:03:01;;;;;;;7.28;4.30;;;;;;;;;;5018559;28;20041;-69
2022/06/26 04:05:27;;;;;;;28.33;12.05;;;;;;;;;;5019207;28;20017;-67
2022/06/26 04:07:52;;;;;;;17.52;5.45;;;;;;;;;;5020924;28;20060;-65
2022/06/26 04:10:18;;;;;;;8.73;4.60;;;;;;;;;;5018689;28;20427;-70
2022/06/26 04:12:43;;;;;;;12.25;4.63;;;;;;;;;;5010868;28;20029;-66
2022/06/26 04:15:09;;;;;;;10.50;5.22;;;;;;;;;;5021117;28;20482;-66
2022/06/26 04:17:34;;;;;;;14.10;5.93;;;;;;;;;;5020496;28;20488;-65
2022/06/26 04:19:59;;;;;;;11.75;5.13;;;;;;;;;;5020318;28;20108;-65
2022/06/26 04:22:25;;;;;;;7.22;4.22;;;;;;;;;;5018742;28;20037;-66
2022/06/26 04:24:50;;;;;;;15.60;4.57;;;;;;;;;;5021038;28;20399;-66
2022/06/26 04:27:15;;;;;;;8.20;4.40;;;;;;;;;;5013123;28;20040;-65
2022/06/26 04:29:41;;;;;;;13.32;4.10;;;;;;;;;;5018522;28;20029;-68
2022/06/26 04:32:07;;;;;;;8.32;4.25;;;;;;;;;;5020832;28;20108;-65
2022/06/26 04:34:32;;;;;;;5.55;3.97;;;;;;;;;;5021396;28;20018;-67
2022/06/26 04:36:58;;;;;;;5.20;3.38;;;;;;;;;;5019493;28;20428;-69
2022/06/26 04:39:23;;;;;;;4.35;2.88;;;;;;;;;;5021014;28;20025;-68
2022/06/26 04:41:48;;;;;;;3.63;2.80;;;;;;;;;;5019420;28;20049;-65
2022/06/26 04:44:14;;;;;;;5.00;2.70;;;;;;;;;;5020330;28;20033;-63
2022/06/26 04:46:41;;;;;;;7.93;2.67;;;;;;;;;;5000947;28;20041;-64
2022/06/26 04:49:06;;;;;;;5.60;2.65;;;;;;;;;;5019595;28;20429;-64
2022/06/26 04:51:35;;;;;;;6.68;2.53;;;;;;;;;;5019442;28;20025;-71
2022/06/26 04:54:01;;;;;;;6.85;2.65;;;;;;;;;;5019876;28;20122;-68
2022/06/26 04:56:27;;;;;;;3.22;2.05;;;;;;;;;;5020013;28;20130;-69
2022/06/26 04:58:53;;;;;;;3.17;2.60;;;;;;;;;;5017994;28;20040;-66
2022/06/26 05:01:18;;;;;;;7.97;2.97;;;;;;;;;;5000882;28;20801;-65
2022/06/26 05:03:43;;;;;;;3.92;2.38;;;;;;;;;;5018514;28;20045;-69
2022/06/26 05:06:09;;;;;;;4.35;2.38;;;;;;;;;;5017821;28;20440;-65
2022/06/26 05:08:34;;;;;;;6.03;2.83;;;;;;;;;;5016406;28;20130;-67
2022/06/26 05:11:00;;;;;;;2.72;2.20;;;;;;;;;;5018596;28;20429;-64
2022/06/26 05:13:25;;;;;;;2.67;2.38;;;;;;;;;;5018441;28;20033;-69
2022/06/26 05:15:51;;;;;;;5.78;2.20;;;;;;;;;;5020571;28;20395;-70
2022/06/26 05:18:16;;;;;;;7.95;4.72;;;;;;;;;;5018820;28;20461;-65
2022/06/26 05:20:41;;;;;;;5.07;4.20;;;;;;;;;;5019195;28;20025;-64
2022/06/26 05:23:07;;;;;;;4.22;2.67;;;;;;;;;;5017606;28;20029;-67
2022/06/26 05:25:33;;;;;;;6.20;2.35;;;;;;;;;;5019155;28;20037;-64
2022/06/26 05:27:59;;;;;;;3.58;2.63;;;;;;;;;;5017259;28;20120;-66
2022/06/26 05:30:24;;;;;;;5.43;2.25;;;;;;;;;;5020125;28;20036;-65
2022/06/26 05:32:49;;;;;;;3.55;2.22;;;;;;;;;;5018797;28;20068;-68
2022/06/26 05:35:15;;;;;;;5.50;2.70;;;;;;;;;;5018774;28;20384;-67
2022/06/26 05:37:40;;;;;;;4.07;2.30;;;;;;;;;;5017295;28;20025;-65
2022/06/26 05:40:06;;;;;;;4.97;2.67;;;;;;;;;;5011445;28;20526;-67
2022/06/26 05:42:31;;;;;;;2.92;2.38;;;;;;;;;;5006361;28;20120;-64
2022/06/26 05:44:57;;;;;;;5.95;2.80;;;;;;;;;;5009442;28;20091;-69
2022/06/26 05:47:22;;;;;;;3.88;2.22;;;;;;;;;;5010294;28;20022;-65
2022/06/26 05:49:47;;;;;;;3.05;2.22;;;;;;;;;;5012991;28;20036;-70
2022/06/26 05:52:13;;;;;;;3.50;2.60;;;;;;;;;;5013369;28;20044;-65
2022/06/26 05:54:38;;;;;;;3.28;2.60;;;;;;;;;;5010129;28;20077;-65
2022/06/26 05:57:04;;;;;;;3.95;2.22;;;;;;;;;;5010596;28;20036;-65
2022/06/26 05:59:29;;;;;;;8.13;2.72;;;;;;;;;;5011874;28;20447;-66
2022/06/26 06:01:54;;;;;;;6.03;2.25;;;;;;;;;;5013089;28;20745;-67
2022/06/26 06:04:20;;;;;;;2.80;2.03;;;;;;;;;;5005236;28;20028;-71
2022/06/26 06:06:45;;;;;;;7.72;2.15;;;;;;;;;;5007932;28;20037;-67
2022/06/26 06:09:10;;;;;;;3.00;2.00;;;;;;;;;;5005741;28;20121;-67
2022/06/26 06:11:36;;;;;;;6.40;2.38;;;;;;;;;;5003770;28;20091;-67
2022/06/26 06:14:02;;;;;;;3.03;2.22;;;;;;;;;;5009038;28;20456;-66
2022/06/26 06:16:27;;;;;;;2.90;2.28;;;;;;;;;;5006606;28;20352;-67
2022/06/26 06:18:52;;;;;;;1.77;1.67;;;;;;;;;;5005611;28;20469;-65
2022/06/26 06:21:18;;;;;;;5.20;2.53;;;;;;;;;;5009782;28;20028;-68
2022/06/26 06:23:43;;;;;;;7.53;2.15;;;;;;;;;;5011354;28;20021;-65
2022/06/26 06:26:09;;;;;;;3.83;2.10;;;;;;;;;;5010858;28;20087;-70
2022/06/26 06:28:35;;;;;;;3.22;2.03;;;;;;;;;;5009171;28;20026;-73
2022/06/26 06:31:00;;;;;;;5.72;2.38;;;;;;;;;;5005828;28;20519;-69
2022/06/26 06:33:25;;;;;;;4.32;2.10;;;;;;;;;;5006413;28;20372;-66
2022/06/26 06:35:54;;;;;;;3.65;2.17;;;;;;;;;;5006214;28;20025;-67
2022/06/26 06:38:20;;;;;;;3.47;1.95;;;;;;;;;;5003164;28;20037;-71
2022/06/26 06:40:45;;;;;;;3.80;2.15;;;;;;;;;;5001659;28;20054;-67
2022/06/26 06:43:11;;;;;;;4.20;2.22;;;;;;;;;;5004189;28;20049;-67
2022/06/26 06:45:36;;;;;;;3.78;2.20;;;;;;;;;;5013015;28;20345;-68
2022/06/26 06:48:02;;;;;;;3.72;2.25;;;;;;;;;;5013217;28;20159;-71
2022/06/26 06:50:27;;;;;;;3.25;1.80;;;;;;;;;;5006614;28;20033;-68
2022/06/26 06:52:52;;;;;;;5.05;2.30;;;;;;;;;;5004338;28;20026;-66
2022/06/26 06:55:18;;;;;;;5.00;2.08;;;;;;;;;;5006915;28;20364;-65
2022/06/26 06:57:43;;;;;;;4.32;2.03;;;;;;;;;;5005876;28;20122;-68
2022/06/26 07:00:08;;;;;;;4.18;2.38;;;;;;;;;;5004209;28;20021;-66
2022/06/26 07:02:36;;;;;;;3.65;1.98;;;;;;;;;;5004918;28;20044;-68
2022/06/26 07:05:01;;;;;;;4.88;2.25;;;;;;;;;;5002707;28;20087;-65
2022/06/26 07:07:27;;;;;;;3.92;2.03;;;;;;;;;;5007807;28;20037;-66
2022/06/26 07:09:52;;;;;;;4.25;1.88;;;;;;;;;;5007357;28;20029;-66
2022/06/26 07:12:18;;;;;;;2.20;2.00;;;;;;;;;;5007908;28;20033;-69
2022/06/26 07:14:43;;;;;;;3.90;2.05;;;;;;;;;;5007990;28;20357;-64
2022/06/26 07:17:08;;;;;;;5.05;2.67;;;;;;;;;;5007532;28;20033;-65
2022/06/26 07:19:34;;;;;;;4.72;2.30;;;;;;;;;;5008800;28;20765;-69
2022/06/26 07:21:59;;;;;;;3.50;1.83;;;;;;;;;;5008713;28;20088;-65
2022/06/26 07:24:24;;;;;;;5.40;2.10;;;;;;;;;;5011798;28;20026;-65
2022/06/26 07:26:50;;;;;;;6.00;2.40;;;;;;;;;;5010135;28;20369;-64
2022/06/26 07:29:15;;;;;;;8.63;2.00;;;;;;;;;;5008856;28;20041;-68
2022/06/26 07:31:40;;;;;;;4.72;2.70;;;;;;;;;;5007882;28;20029;-64
2022/06/26 07:34:18;;;;;;;4.30;1.90;;;;;;;;;;5009657;28;20044;-69
2022/06/26 07:36:44;;;;;;;2.78;1.75;;;;;;;;;;5005976;28;20033;-64
2022/06/26 07:39:10;;;;;;;1.80;1.63;;;;;;;;;;5014916;28;20036;-67
2022/06/26 07:41:36;;;;;;;1.73;1.25;;;;;;;;;;5009064;28;20057;-67
2022/06/26 07:44:03;;;;;;;1.85;1.55;;;;;;;;;;5012284;28;20427;-66
2022/06/26 07:46:28;;;;;;;1.55;1.40;;;;;;;;;;5009977;28;20045;-67
2022/06/26 07:48:53;;;;;;;5.90;1.58;;;;;;;;;;5014571;28;20014;-68
2022/06/26 07:51:19;;;;;;;2.63;1.70;;;;;;;;;;5012558;28;20022;-71
2022/06/26 07:53:45;;;;;;;3.50;1.65;;;;;;;;;;5009968;28;20108;-67
2022/06/26 07:56:11;;;;;;;3.42;1.80;;;;;;;;;;5034816;28;20095;-65
2022/06/26 07:58:37;;;;;;;2.40;1.23;;;;;;;;;;5011973;28;20034;-66
2022/06/26 08:01:02;;;;;;;3.83;1.70;;;;;;;;;;5012500;28;20018;-68
2022/06/26 08:03:28;;;;;;;3.33;1.23;;;;;;;;;;5013918;28;20335;-67
2022/06/26 08:05:53;;;;;;;2.45;1.58;;;;;;;;;;5013221;28;20017;-68
2022/06/26 08:08:18;;;;;;;5.90;1.70;;;;;;;;;;5012185;28;20037;-70
2022/06/26 08:10:44;;;;;;;4.25;1.50;;;;;;;;;;5011604;28;20053;-68
2022/06/26 08:13:09;;;;;;;4.45;1.65;;;;;;;;;;5015356;28;20421;-67
2022/06/26 08:15:35;;;;;;;4.10;1.90;;;;;;;;;;5015297;28;20056;-70
2022/06/26 08:18:01;;;;;;;1.83;1.23;;;;;;;;;;5012346;28;20041;-68
2022/06/26 08:20:26;;;;;;;2.05;1.45;;;;;;;;;;5011161;28;20132;-71
2022/06/26 08:22:51;;;;;;;2.65;1.58;;;;;;;;;;5015008;28;20451;-70
2022/06/26 08:25:17;;;;;;;1.88;1.50;;;;;;;;;;5009716;28;20127;-67
2022/06/26 08:27:42;;;;;;;2.35;1.13;;;;;;;;;;5012625;28;20037;-70
2022/06/26 08:30:09;;;;;;;1.90;1.10;;;;;;;;;;5008018;28;20623;-69
2022/06/26 08:32:35;;;;;;;2.05;1.33;;;;;;;;;;5006157;28;20305;-65
2022/06/26 08:35:00;;;;;;;1.45;1.25;;;;;;;;;;5015028;28;20021;-68
2022/06/26 08:37:26;;;;;;;4.30;1.50;;;;;;;;;;5028690;28;20044;-66
2022/06/26 08:39:51;;;;;;;2.28;1.52;;;;;;;;;;5006526;28;20029;-66
2022/06/26 08:42:17;;;;;;;2.83;1.50;;;;;;;;;;5019985;28;20996;-68
2022/06/26 08:44:43;;;;;;;2.67;1.30;;;;;;;;;;5017787;28;20052;-67
2022/06/26 08:47:10;;;;;;;2.80;1.30;;;;;;;;;;5019112;28;20099;-66
2022/06/26 08:49:35;;;;;;;2.80;1.50;;;;;;;;;;5010100;28;20036;-66
2022/06/26 08:52:01;;;;;;;1.35;1.23;;;;;;;;;;5020900;28;20033;-66
2022/06/26 08:54:26;;;;;;;2.22;1.25;;;;;;;;;;5018367;28;20064;-71
2022/06/26 08:56:52;;;;;;;2.05;1.40;;;;;;;;;;5017435;28;20029;-68
2022/06/26 08:59:18;;;;;;;2.08;1.40;;;;;;;;;;5020487;28;20694;-67
2022/06/26 09:01:44;;;;;;;2.55;1.67;;;;;;;;;;5004879;28;20318;-66
2022/06/26 09:04:11;;;;;;;4.22;1.67;;;;;;;;;;5004507;28;20029;-68
2022/06/26 09:06:38;;;;;;;2.63;1.40;;;;;;;;;;5005804;28;20044;-68
2022/06/26 09:09:16;;;;;;;1.70;1.15;;;;;;;;;;5006693;28;20373;-75
2022/06/26 09:11:42;;;;;;;2.05;1.13;;;;;;;;;;5007812;28;20021;-73
2022/06/26 09:14:07;;;;;;;1.90;1.20;;;;;;;;;;5007851;28;20159;-72
2022/06/26 09:16:33;;;;;;;4.68;2.08;;;;;;;;;;5007570;28;20380;-64
2022/06/26 09:19:05;;;;;;;2.60;1.38;;;;;;;;;;4990410;28;21299;-65
2022/06/26 09:21:31;;;;;;;1.20;1.10;;;;;;;;;;5006569;28;20068;-64
2022/06/26 09:23:56;;;;;;;2.10;1.20;;;;;;;;;;5010702;28;20057;-66
2022/06/26 09:26:21;;;;;;;4.65;1.85;;;;;;;;;;5011592;28;20092;-71
2022/06/26 09:28:47;;;;;;;2.95;1.20;;;;;;;;;;5003425;28;20083;-74
2022/06/26 09:31:18;;;;;;;2.63;1.30;;;;;;;;;;5005971;28;20029;-74
2022/06/26 09:33:43;;;;;;;1.70;1.20;;;;;;;;;;5003332;28;20491;-74
2022/06/26 09:36:13;;;;;;;3.00;1.13;;;;;;;;;;5002734;28;20033;-75
2022/06/26 09:38:39;;;;;;;4.75;1.67;;;;;;;;;;5006577;28;20048;-75
2022/06/26 09:41:05;;;;;;;5.97;1.40;;;;;;;;;;5011973;28;20504;-71
2022/06/26 09:43:32;;;;;;;4.38;1.27;;;;;;;;;;5019447;28;20061;-70
2022/06/26 09:46:02;;;;;;;1.98;1.40;;;;;;;;;;5019337;28;20048;-75
2022/06/26 09:48:27;;;;;;;2.72;1.55;;;;;;;;;;5005203;28;20037;-75
2022/06/26 09:50:54;;;;;;;2.30;1.60;;;;;;;;;;5006546;28;20459;-72
2022/06/26 09:53:20;;;;;;;2.05;1.20;;;;;;;;;;5004276;28;20030;-75
2022/06/26 09:55:46;;;;;;;1.45;1.00;;;;;;;;;;5005123;28;20548;-71
2022/06/26 09:58:12;;;;;;;1.33;1.20;;;;;;;;;;5014513;28;20036;-73
2022/06/26 10:00:37;;;;;;;7.35;1.83;;;;;;;;;;5020832;28;20018;-79
2022/06/26 10:08:33;;;;;;;2.28;1.30;;;;;;;;;;5009178;28;20075;-75
2022/06/26 10:10:58;;;;;;;1.80;1.38;;;;;;;;;;5018976;28;20034;-74
2022/06/26 10:13:24;;;;;;;5.72;1.85;;;;;;;;;;5010730;28;20029;-77
2022/06/26 10:15:54;;;;;;;2.88;1.35;;;;;;;;;;5015982;28;20086;-76
2022/06/26 10:18:38;;;;;;;4.70;1.40;;;;;;;;;;5005387;28;20030;-76
2022/06/26 10:21:08;;;;;;;3.45;1.60;;;;;;;;;;5004853;28;20104;-76
2022/06/26 10:23:36;;;;;;;3.00;1.67;;;;;;;;;;5007367;28;20330;-76
2022/06/26 10:26:11;;;;;;;2.83;1.38;;;;;;;;;;5005194;28;20025;-75
2022/06/26 10:28:37;;;;;;;3.65;1.50;;;;;;;;;;5006067;28;20091;-73
2022/06/26 10:31:08;;;;;;;4.10;1.55;;;;;;;;;;5006382;28;20411;-75
2022/06/26 10:33:33;;;;;;;4.45;1.35;;;;;;;;;;5016211;28;20107;-76
2022/06/26 10:35:59;;;;;;;4.30;2.03;;;;;;;;;;5015635;28;20067;-74
2022/06/26 10:38:25;;;;;;;9.63;2.08;;;;;;;;;;5018140;28;20029;-74
2022/06/26 10:43:55;;;;;;;4.75;1.40;;;;;;;;;;5018666;28;20127;-76
2022/06/26 10:46:21;;;;;;;4.82;1.50;;;;;;;;;;5009562;28;20087;-74
2022/06/26 10:48:54;;;;;;;2.30;1.50;;;;;;;;;;5015335;28;20024;-73
2022/06/26 10:51:24;;;;;;;4.20;1.70;;;;;;;;;;5030056;28;20286;-72
2022/06/26 10:53:49;;;;;;;3.72;1.60;;;;;;;;;;5015637;28;20045;-73
2022/06/26 10:56:14;;;;;;;4.68;1.75;;;;;;;;;;5014208;28;20026;-73
2022/06/26 10:58:45;;;;;;;4.32;1.63;;;;;;;;;;5014843;28;20488;-73
2022/06/26 11:01:11;;;;;;;5.72;2.13;;;;;;;;;;5017754;28;20033;-73
2022/06/26 11:03:37;;;;;;;5.13;1.98;;;;;;;;;;5012078;28;20025;-73
2022/06/26 11:06:07;;;;;;;8.35;2.17;;;;;;;;;;5012711;28;20947;-71
2022/06/26 11:08:41;;;;;;;4.05;2.08;;;;;;;;;;5012532;28;20034;-73
2022/06/26 11:11:14;;;;;;;5.75;2.10;;;;;;;;;;5013689;28;20355;-71
2022/06/26 11:13:59;;;;;;;7.43;3.72;;;;;;;;;;5014163;28;20360;-72
2022/06/26 11:16:34;;;;;;;32.25;18.83;;;;;;;;;;5015163;28;20342;-72
2022/06/26 11:19:00;;;;;;;137.68;78.72;;;;;;;;;;5016918;28;20097;-72
2022/06/26 11:21:29;;;;;;;123.28;77.35;;;;;;;;;;5015528;28;20029;-73
2022/06/26 11:23:54;;;;;;;133.93;92.03;;;;;;;;;;5016869;28;20109;-72
2022/06/26 11:26:21;;;;;;;71.28;48.50;;;;;;;;;;5017770;28;20093;-73
2022/06/26 11:28:52;;;;;;;125.53;86.32;;;;;;;;;;5017260;28;20025;-74
2022/06/26 11:31:22;;;;;;;63.17;46.63;;;;;;;;;;5012847;28;20076;-73
2022/06/26 11:33:48;;;;;;;21.98;16.40;;;;;;;;;;5012618;28;20021;-72
2022/06/26 11:36:14;;;;;;;29.77;26.58;;;;;;;;;;5014401;28;20396;-76
2022/06/26 11:38:46;;;;;;;32.35;28.27;;;;;;;;;;5013184;28;20499;-74
2022/06/26 11:41:11;;;;;;;149.90;119.32;;;;;;;;;;5015563;28;20045;-74
2022/06/26 11:43:43;;;;;;;210.75;156.88;;;;;;;;;;5013736;28;20040;-74
2022/06/26 11:46:09;;;;;;;218.65;151.93;;;;;;;;;;5012261;28;20104;-72
2022/06/26 11:48:34;;;;;;;94.32;65.30;;;;;;;;;;5013185;28;20029;-74
2022/06/26 11:50:59;;;;;;;38.17;26.55;;;;;;;;;;5012059;28;20037;-75
2022/06/26 11:53:26;;;;;;;14.32;8.05;;;;;;;;;;5012128;28;20084;-74
2022/06/26 11:55:56;;;;;;;6.15;3.83;;;;;;;;;;5011568;28;20026;-73
2022/06/26 11:58:23;;;;;;;4.72;2.20;;;;;;;;;;5012819;28;20033;-74
2022/06/26 12:00:48;;;;;;;3.53;2.28;;;;;;;;;;5012655;28;20389;-73
2022/06/26 12:03:14;;;;;;;3.40;2.28;;;;;;;;;;5012573;28;20022;-73
2022/06/26 12:05:41;;;;;;;2.22;1.90;;;;;;;;;;5015132;28;20084;-73
2022/06/26 12:08:15;;;;;;;3.58;1.90;;;;;;;;;;5013125;28;20037;-73
2022/06/26 12:10:40;;;;;;;2.95;1.50;;;;;;;;;;5011761;28;20030;-74
2022/06/26 12:13:06;;;;;;;4.95;1.90;;;;;;;;;;5013610;28;20115;-74
2022/06/26 12:15:32;;;;;;;2.65;1.80;;;;;;;;;;5013629;28;20021;-73
2022/06/26 12:17:59;;;;;;;3.30;1.75;;;;;;;;;;5012354;28;20065;-73
2022/06/26 12:20:24;;;;;;;4.32;2.10;;;;;;;;;;5016603;28;20040;-72
2022/06/26 12:22:51;;;;;;;2.70;1.90;;;;;;;;;;5010307;28;20037;-74
2022/06/26 12:25:30;;;;;;;4.03;1.83;;;;;;;;;;5012036;28;20027;-73
2022/06/26 12:27:56;;;;;;;2.83;1.52;;;;;;;;;;5012084;28;20060;-73
2022/06/26 12:30:23;;;;;;;4.60;1.80;;;;;;;;;;5012268;28;20061;-74
2022/06/26 12:32:49;;;;;;;2.90;1.77;;;;;;;;;;5015416;28;20040;-73
2022/06/26 12:35:14;;;;;;;2.58;1.98;;;;;;;;;;5011980;28;20026;-74
2022/06/26 12:37:39;;;;;;;2.08;1.67;;;;;;;;;;5011895;28;20099;-73
2022/06/26 12:40:05;;;;;;;3.42;1.90;;;;;;;;;;5012599;28;20029;-74
2022/06/26 12:42:31;;;;;;;3.30;1.70;;;;;;;;;;5012846;28;20387;-73
2022/06/26 12:44:56;;;;;;;3.47;1.70;;;;;;;;;;5013080;28;20021;-73
2022/06/26 12:47:21;;;;;;;3.58;2.08;;;;;;;;;;5011598;28;20112;-74
2022/06/26 12:49:47;;;;;;;1.88;1.70;;;;;;;;;;5012331;28;20099;-76
2022/06/26 12:52:12;;;;;;;1.65;1.42;;;;;;;;;;5014120;28;20022;-73
2022/06/26 12:54:37;;;;;;;2.05;1.55;;;;;;;;;;5011166;28;20044;-75
2022/06/26 12:57:03;;;;;;;1.95;1.50;;;;;;;;;;5011227;28;20053;-74
2022/06/26 12:59:28;;;;;;;3.58;1.70;;;;;;;;;;5012723;28;20467;-73
2022/06/26 13:01:54;;;;;;;2.60;1.33;;;;;;;;;;5013347;28;20087;-74
2022/06/26 13:04:19;;;;;;;2.10;1.20;;;;;;;;;;5010944;28;20381;-74
2022/06/26 13:06:45;;;;;;;2.13;1.30;;;;;;;;;;5012707;28;20037;-75
2022/06/26 13:09:10;;;;;;;1.15;1.05;;;;;;;;;;5012789;28;20340;-74
2022/06/26 13:11:37;;;;;;;2.88;1.38;;;;;;;;;;5011888;28;20034;-74
2022/06/26 13:14:02;;;;;;;1.48;1.10;;;;;;;;;;5012385;28;20483;-75
2022/06/26 13:16:28;;;;;;;1.60;1.13;;;;;;;;;;5010537;28;20041;-73
2022/06/26 13:18:53;;;;;;;4.35;1.38;;;;;;;;;;5012411;28;20121;-74
2022/06/26 13:21:19;;;;;;;2.17;1.30;;;;;;;;;;5008607;28;20390;-74
2022/06/26 13:23:45;;;;;;;2.45;1.38;;;;;;;;;;5010675;28;20033;-76
2022/06/26 13:26:10;;;;;;;1.70;1.55;;;;;;;;;;5010813;28;20017;-75
2022/06/26 13:28:36;;;;;;;1.65;1.30;;;;;;;;;;5011484;28;20076;-75
2022/06/26 13:31:02;;;;;;;3.75;1.63;;;;;;;;;;5012958;28;20033;-74
2022/06/26 13:33:28;;;;;;;5.88;1.55;;;;;;;;;;5012716;28;20025;-74
2022/06/26 13:35:53;;;;;;;1.30;1.20;;;;;;;;;;5012218;28;20095;-75
2022/06/26 13:38:18;;;;;;;4.63;1.70;;;;;;;;;;5011519;28;20091;-75
2022/06/26 13:40:44;;;;;;;2.22;1.23;;;;;;;;;;5012593;28;20054;-76
2022/06/26 13:43:09;;;;;;;2.78;1.50;;;;;;;;;;5010091;28;20030;-74
2022/06/26 13:45:34;;;;;;;3.10;1.20;;;;;;;;;;5012381;28;20104;-75
2022/06/26 13:48:00;;;;;;;2.30;1.17;;;;;;;;;;5012243;28;20029;-75
2022/06/26 13:50:25;;;;;;;3.63;1.20;;;;;;;;;;5014382;28;20033;-77
2022/06/26 13:52:50;;;;;;;2.97;1.70;;;;;;;;;;5012597;28;20406;-76
2022/06/26 13:55:16;;;;;;;3.75;1.95;;;;;;;;;;5013002;28;20063;-76
2022/06/26 13:57:41;;;;;;;3.00;1.38;;;;;;;;;;5011575;28;20038;-75
2022/06/26 14:00:07;;;;;;;3.60;1.33;;;;;;;;;;5013314;28;21241;-75
2022/06/26 14:02:32;;;;;;;3.85;1.45;;;;;;;;;;5010624;28;20486;-76
2022/06/26 14:04:58;;;;;;;2.83;1.40;;;;;;;;;;5010163;28;20083;-75
2022/06/26 14:07:23;;;;;;;2.15;1.35;;;;;;;;;;5014418;28;20038;-76
2022/06/26 14:09:48;;;;;;;2.92;1.50;;;;;;;;;;5008824;28;20086;-74
2022/06/26 14:12:14;;;;;;;2.95;1.50;;;;;;;;;;5014706;28;20038;-75
2022/06/26 14:14:39;;;;;;;1.75;1.52;;;;;;;;;;5016594;28;20033;-75
2022/06/26 14:17:04;;;;;;;1.52;1.15;;;;;;;;;;5016868;28;20094;-74
2022/06/26 14:19:30;;;;;;;2.75;1.40;;;;;;;;;;5020389;28;20025;-75
2022/06/26 14:27:23;;;;;;;1.45;1.00;;;;;;;;;;5018430;28;20099;-75
2022/06/26 14:29:49;;;;;;;2.40;1.38;;;;;;;;;;5020761;28;20041;-75
2022/06/26 14:32:14;;;;;;;2.03;1.30;;;;;;;;;;5021146;28;20061;-75
2022/06/26 14:34:40;;;;;;;2.15;1.60;;;;;;;;;;5018307;28;20026;-75
2022/06/26 14:37:05;;;;;;;4.22;1.55;;;;;;;;;;5016943;28;20065;-75
2022/06/26 14:39:30;;;;;;;2.65;1.65;;;;;;;;;;5019938;28;20330;-74
2022/06/26 14:41:57;;;;;;;2.38;1.40;;;;;;;;;;5018299;28;20056;-74
2022/06/26 14:44:22;;;;;;;3.03;1.83;;;;;;;;;;5015694;28;20344;-74
2022/06/26 14:46:47;;;;;;;3.55;1.55;;;;;;;;;;5016804;28;20032;-74
2022/06/26 14:49:13;;;;;;;3.00;1.50;;;;;;;;;;5016540;28;20833;-74
2022/06/26 14:51:38;;;;;;;4.88;1.52;;;;;;;;;;5013834;28;20052;-75